sensor_id;sensor_type;location;lat;lon;timestamp;temperature;humidity
3630;DHT22;1831;53.626;10.012;2022-08-21T00:00:23;24.50;53.90
3630;DHT22;1831;53.626;10.012;2022-08-21T00:02:52;24.50;54.00
3630;DHT22;1831;53.626;10.012;2022-08-21T00:05:20;24.50;53.90
3630;DHT22;1831;53.626;10.012;2022-08-21T00:07:49;24.50;53.90
3630;DHT22;1831;53.626;10.012;2022-08-21T00:10:16;24.50;53.90
3630;DHT22;1831;53.626;10.012;2022-08-21T00:12:44;24.50;53.90
3630;DHT22;1831;53.626;10.012;2022-08-21T00:15:15;24.50;53.80
3630;DHT22;1831;53.626;10.012;2022-08-21T00:17:42;24.40;53.90
3630;DHT22;1831;53.626;10.012;2022-08-21T00:20:11;24.40;54.10
3630;DHT22;1831;53.626;10.012;2022-08-21T00:22:38;24.30;54.20
3630;DHT22;1831;53.626;10.012;2022-08-21T00:25:07;24.30;54.30
3630;DHT22;1831;53.626;10.012;2022-08-21T00:27:35;24.30;54.30
3630;DHT22;1831;53.626;10.012;2022-08-21T00:30:04;24.30;54.40
3630;DHT22;1831;53.626;10.012;2022-08-21T00:32:31;24.30;54.50
3630;DHT22;1831;53.626;10.012;2022-08-21T00:34:58;24.30;54.60
3630;DHT22;1831;53.626;10.012;2022-08-21T00:37:25;24.30;54.50
3630;DHT22;1831;53.626;10.012;2022-08-21T00:39:52;24.30;54.60
3630;DHT22;1831;53.626;10.012;2022-08-21T00:42:21;24.30;54.60
3630;DHT22;1831;53.626;10.012;2022-08-21T00:44:49;24.20;54.60
3630;DHT22;1831;53.626;10.012;2022-08-21T00:47:16;24.30;54.70
3630;DHT22;1831;53.626;10.012;2022-08-21T00:49:44;24.20;54.60
3630;DHT22;1831;53.626;10.012;2022-08-21T00:52:15;24.20;55.30
3630;DHT22;1831;53.626;10.012;2022-08-21T00:54:44;24.30;54.70
3630;DHT22;1831;53.626;10.012;2022-08-21T00:57:15;24.20;54.80
3630;DHT22;1831;53.626;10.012;2022-08-21T00:59:46;24.20;54.80
3630;DHT22;1831;53.626;10.012;2022-08-21T01:02:16;24.20;54.90
3630;DHT22;1831;53.626;10.012;2022-08-21T01:04:43;24.10;54.80
3630;DHT22;1831;53.626;10.012;2022-08-21T01:07:10;24.10;54.90
3630;DHT22;1831;53.626;10.012;2022-08-21T01:09:38;24.10;55.00
3630;DHT22;1831;53.626;10.012;2022-08-21T01:12:06;24.10;55.10
3630;DHT22;1831;53.626;10.012;2022-08-21T01:14:33;24.00;55.00
3630;DHT22;1831;53.626;10.012;2022-08-21T01:17:03;24.00;55.00
3630;DHT22;1831;53.626;10.012;2022-08-21T01:19:30;24.00;55.00
3630;DHT22;1831;53.626;10.012;2022-08-21T01:21:58;24.00;55.10
3630;DHT22;1831;53.626;10.012;2022-08-21T01:24:26;24.00;55.10
3630;DHT22;1831;53.626;10.012;2022-08-21T01:26:53;24.00;55.10
3630;DHT22;1831;53.626;10.012;2022-08-21T01:29:29;24.00;55.10
3630;DHT22;1831;53.626;10.012;2022-08-21T01:31:57;23.90;55.20
3630;DHT22;1831;53.626;10.012;2022-08-21T01:34:24;23.90;55.20
3630;DHT22;1831;53.626;10.012;2022-08-21T01:36:51;23.90;55.20
3630;DHT22;1831;53.626;10.012;2022-08-21T01:39:19;23.90;55.20
3630;DHT22;1831;53.626;10.012;2022-08-21T01:41:46;23.90;55.10
3630;DHT22;1831;53.626;10.012;2022-08-21T01:44:15;23.90;55.20
3630;DHT22;1831;53.626;10.012;2022-08-21T01:46:42;23.90;55.20
3630;DHT22;1831;53.626;10.012;2022-08-21T01:49:09;23.90;55.30
3630;DHT22;1831;53.626;10.012;2022-08-21T01:51:36;23.90;55.20
3630;DHT22;1831;53.626;10.012;2022-08-21T01:54:03;23.90;55.20
3630;DHT22;1831;53.626;10.012;2022-08-21T01:56:36;23.90;55.20
3630;DHT22;1831;53.626;10.012;2022-08-21T01:59:03;23.80;55.20
3630;DHT22;1831;53.626;10.012;2022-08-21T02:01:30;23.80;55.40
3630;DHT22;1831;53.626;10.012;2022-08-21T02:03:57;23.70;55.50
3630;DHT22;1831;53.626;10.012;2022-08-21T02:06:25;23.70;55.50
3630;DHT22;1831;53.626;10.012;2022-08-21T02:08:53;23.70;55.50
3630;DHT22;1831;53.626;10.012;2022-08-21T02:11:20;23.70;55.60
3630;DHT22;1831;53.626;10.012;2022-08-21T02:13:48;23.70;55.50
3630;DHT22;1831;53.626;10.012;2022-08-21T02:16:15;23.70;55.50
3630;DHT22;1831;53.626;10.012;2022-08-21T02:18:42;23.70;55.40
3630;DHT22;1831;53.626;10.012;2022-08-21T02:21:09;23.60;55.40
3630;DHT22;1831;53.626;10.012;2022-08-21T02:23:36;23.60;55.40
3630;DHT22;1831;53.626;10.012;2022-08-21T02:26:07;23.60;56.10
3630;DHT22;1831;53.626;10.012;2022-08-21T02:28:34;23.60;55.40
3630;DHT22;1831;53.626;10.012;2022-08-21T02:31:04;23.50;55.30
3630;DHT22;1831;53.626;10.012;2022-08-21T02:33:32;23.60;55.40
3630;DHT22;1831;53.626;10.012;2022-08-21T02:35:59;23.50;55.40
3630;DHT22;1831;53.626;10.012;2022-08-21T02:38:32;23.50;55.50
3630;DHT22;1831;53.626;10.012;2022-08-21T02:41:04;23.50;55.50
3630;DHT22;1831;53.626;10.012;2022-08-21T02:43:31;23.50;55.50
3630;DHT22;1831;53.626;10.012;2022-08-21T02:45:58;23.50;55.50
3630;DHT22;1831;53.626;10.012;2022-08-21T02:48:28;23.50;55.50
3630;DHT22;1831;53.626;10.012;2022-08-21T02:50:57;23.60;55.60
3630;DHT22;1831;53.626;10.012;2022-08-21T02:53:25;23.50;55.50
3630;DHT22;1831;53.626;10.012;2022-08-21T02:55:53;23.50;55.50
3630;DHT22;1831;53.626;10.012;2022-08-21T02:58:23;23.50;55.50
3630;DHT22;1831;53.626;10.012;2022-08-21T03:00:51;23.50;55.50
3630;DHT22;1831;53.626;10.012;2022-08-21T03:03:18;23.60;55.60
3630;DHT22;1831;53.626;10.012;2022-08-21T03:05:48;23.50;55.50
3630;DHT22;1831;53.626;10.012;2022-08-21T03:08:15;23.50;55.50
3630;DHT22;1831;53.626;10.012;2022-08-21T03:10:45;23.50;55.50
3630;DHT22;1831;53.626;10.012;2022-08-21T03:13:12;23.50;55.60
3630;DHT22;1831;53.626;10.012;2022-08-21T03:15:40;23.50;55.60
3630;DHT22;1831;53.626;10.012;2022-08-21T03:18:09;23.50;55.70
3630;DHT22;1831;53.626;10.012;2022-08-21T03:20:37;23.40;55.60
3630;DHT22;1831;53.626;10.012;2022-08-21T03:23:06;23.40;55.60
3630;DHT22;1831;53.626;10.012;2022-08-21T03:25:34;23.40;55.70
3630;DHT22;1831;53.626;10.012;2022-08-21T03:28:03;23.40;55.80
3630;DHT22;1831;53.626;10.012;2022-08-21T03:30:31;23.40;55.80
3630;DHT22;1831;53.626;10.012;2022-08-21T03:32:58;23.40;55.90
3630;DHT22;1831;53.626;10.012;2022-08-21T03:35:26;23.40;55.80
3630;DHT22;1831;53.626;10.012;2022-08-21T03:37:53;23.40;55.90
3630;DHT22;1831;53.626;10.012;2022-08-21T03:40:22;23.40;55.90
3630;DHT22;1831;53.626;10.012;2022-08-21T03:42:50;23.40;55.80
3630;DHT22;1831;53.626;10.012;2022-08-21T03:45:18;23.30;55.80
3630;DHT22;1831;53.626;10.012;2022-08-21T03:47:53;23.30;55.90
3630;DHT22;1831;53.626;10.012;2022-08-21T03:50:21;23.30;56.50
3630;DHT22;1831;53.626;10.012;2022-08-21T03:52:49;23.30;56.00
3630;DHT22;1831;53.626;10.012;2022-08-21T03:55:16;23.30;55.90
3630;DHT22;1831;53.626;10.012;2022-08-21T03:57:44;23.30;56.00
3630;DHT22;1831;53.626;10.012;2022-08-21T04:00:13;23.30;55.90
3630;DHT22;1831;53.626;10.012;2022-08-21T04:02:41;23.30;56.00
3630;DHT22;1831;53.626;10.012;2022-08-21T04:05:09;23.20;55.90
3630;DHT22;1831;53.626;10.012;2022-08-21T04:07:37;23.20;55.90
3630;DHT22;1831;53.626;10.012;2022-08-21T04:10:05;23.20;56.00
3630;DHT22;1831;53.626;10.012;2022-08-21T04:12:32;23.20;56.10
3630;DHT22;1831;53.626;10.012;2022-08-21T04:15:01;23.20;56.20
3630;DHT22;1831;53.626;10.012;2022-08-21T04:17:28;23.20;56.20
3630;DHT22;1831;53.626;10.012;2022-08-21T04:19:55;23.20;56.20
3630;DHT22;1831;53.626;10.012;2022-08-21T04:22:22;23.20;56.10
3630;DHT22;1831;53.626;10.012;2022-08-21T04:24:48;23.20;56.20
3630;DHT22;1831;53.626;10.012;2022-08-21T04:27:15;23.10;56.10
3630;DHT22;1831;53.626;10.012;2022-08-21T04:29:42;23.20;56.20
3630;DHT22;1831;53.626;10.012;2022-08-21T04:32:10;23.20;56.20
3630;DHT22;1831;53.626;10.012;2022-08-21T04:34:37;23.20;56.20
3630;DHT22;1831;53.626;10.012;2022-08-21T04:37:04;23.20;56.20
3630;DHT22;1831;53.626;10.012;2022-08-21T04:39:33;23.20;56.20
3630;DHT22;1831;53.626;10.012;2022-08-21T04:42:00;23.30;56.20
3630;DHT22;1831;53.626;10.012;2022-08-21T04:44:27;23.30;56.30
3630;DHT22;1831;53.626;10.012;2022-08-21T04:46:54;23.30;56.50
3630;DHT22;1831;53.626;10.012;2022-08-21T04:49:22;23.30;56.50
3630;DHT22;1831;53.626;10.012;2022-08-21T04:51:49;23.30;56.40
3630;DHT22;1831;53.626;10.012;2022-08-21T04:54:19;23.30;56.50
3630;DHT22;1831;53.626;10.012;2022-08-21T04:56:48;23.30;56.50
3630;DHT22;1831;53.626;10.012;2022-08-21T04:59:19;23.30;56.50
3630;DHT22;1831;53.626;10.012;2022-08-21T05:01:46;23.30;56.60
3630;DHT22;1831;53.626;10.012;2022-08-21T05:04:17;23.30;56.60
3630;DHT22;1831;53.626;10.012;2022-08-21T05:06:47;23.30;56.80
3630;DHT22;1831;53.626;10.012;2022-08-21T05:09:16;23.30;56.80
3630;DHT22;1831;53.626;10.012;2022-08-21T05:11:44;23.30;56.80
3630;DHT22;1831;53.626;10.012;2022-08-21T05:14:11;23.30;56.90
3630;DHT22;1831;53.626;10.012;2022-08-21T05:16:39;23.30;56.90
3630;DHT22;1831;53.626;10.012;2022-08-21T05:19:56;23.30;56.90
3630;DHT22;1831;53.626;10.012;2022-08-21T05:29:31;23.40;57.50
3630;DHT22;1831;53.626;10.012;2022-08-21T05:31:58;23.40;57.30
3630;DHT22;1831;53.626;10.012;2022-08-21T05:34:25;23.40;57.40
3630;DHT22;1831;53.626;10.012;2022-08-21T05:36:52;23.50;57.60
3630;DHT22;1831;53.626;10.012;2022-08-21T05:39:21;23.50;57.60
3630;DHT22;1831;53.626;10.012;2022-08-21T05:41:48;23.50;57.70
3630;DHT22;1831;53.626;10.012;2022-08-21T05:44:16;23.50;57.90
3630;DHT22;1831;53.626;10.012;2022-08-21T05:46:44;23.50;57.80
3630;DHT22;1831;53.626;10.012;2022-08-21T05:49:11;23.60;58.30
3630;DHT22;1831;53.626;10.012;2022-08-21T05:51:40;23.60;58.50
3630;DHT22;1831;53.626;10.012;2022-08-21T05:54:07;23.70;58.80
3630;DHT22;1831;53.626;10.012;2022-08-21T05:56:34;23.80;58.70
3630;DHT22;1831;53.626;10.012;2022-08-21T05:59:01;23.80;58.60
3630;DHT22;1831;53.626;10.012;2022-08-21T06:01:28;23.90;58.60
3630;DHT22;1831;53.626;10.012;2022-08-21T06:03:56;23.90;58.50
3630;DHT22;1831;53.626;10.012;2022-08-21T06:06:23;24.10;58.20
3630;DHT22;1831;53.626;10.012;2022-08-21T06:08:50;24.20;57.90
3630;DHT22;1831;53.626;10.012;2022-08-21T06:11:18;24.40;57.40
3630;DHT22;1831;53.626;10.012;2022-08-21T06:13:45;24.60;57.10
3630;DHT22;1831;53.626;10.012;2022-08-21T06:16:14;24.60;57.00
3630;DHT22;1831;53.626;10.012;2022-08-21T06:18:43;24.70;56.90
3630;DHT22;1831;53.626;10.012;2022-08-21T06:21:12;24.70;56.90
3630;DHT22;1831;53.626;10.012;2022-08-21T06:23:39;24.60;56.90
3630;DHT22;1831;53.626;10.012;2022-08-21T06:26:07;24.60;57.00
3630;DHT22;1831;53.626;10.012;2022-08-21T06:28:35;24.50;57.00
3630;DHT22;1831;53.626;10.012;2022-08-21T06:31:10;24.50;56.70
3630;DHT22;1831;53.626;10.012;2022-08-21T06:33:37;24.50;56.30
3630;DHT22;1831;53.626;10.012;2022-08-21T06:36:04;24.50;56.40
3630;DHT22;1831;53.626;10.012;2022-08-21T06:38:33;24.50;56.30
3630;DHT22;1831;53.626;10.012;2022-08-21T06:41:00;24.50;56.40
3630;DHT22;1831;53.626;10.012;2022-08-21T06:43:27;24.50;56.20
3630;DHT22;1831;53.626;10.012;2022-08-21T06:45:54;24.60;56.10
3630;DHT22;1831;53.626;10.012;2022-08-21T06:48:21;24.60;56.00
3630;DHT22;1831;53.626;10.012;2022-08-21T06:50:48;24.70;55.80
3630;DHT22;1831;53.626;10.012;2022-08-21T06:53:19;24.70;55.60
3630;DHT22;1831;53.626;10.012;2022-08-21T06:55:48;24.70;55.40
3630;DHT22;1831;53.626;10.012;2022-08-21T06:58:15;24.60;55.60
3630;DHT22;1831;53.626;10.012;2022-08-21T07:00:44;24.50;55.60
3630;DHT22;1831;53.626;10.012;2022-08-21T07:03:20;24.50;56.10
3630;DHT22;1831;53.626;10.012;2022-08-21T07:05:47;24.40;56.00
3630;DHT22;1831;53.626;10.012;2022-08-21T07:08:14;24.40;55.90
3630;DHT22;1831;53.626;10.012;2022-08-21T07:10:42;24.50;56.10
3630;DHT22;1831;53.626;10.012;2022-08-21T07:13:10;24.50;55.70
3630;DHT22;1831;53.626;10.012;2022-08-21T07:15:37;24.50;55.80
3630;DHT22;1831;53.626;10.012;2022-08-21T07:18:04;24.60;55.60
3630;DHT22;1831;53.626;10.012;2022-08-21T07:20:32;24.70;55.30
3630;DHT22;1831;53.626;10.012;2022-08-21T07:23:02;24.70;55.10
3630;DHT22;1831;53.626;10.012;2022-08-21T07:25:30;24.90;55.40
3630;DHT22;1831;53.626;10.012;2022-08-21T07:27:57;24.90;54.90
3630;DHT22;1831;53.626;10.012;2022-08-21T07:30:26;25.00;54.70
3630;DHT22;1831;53.626;10.012;2022-08-21T07:32:53;25.10;54.60
3630;DHT22;1831;53.626;10.012;2022-08-21T07:35:20;25.00;54.30
3630;DHT22;1831;53.626;10.012;2022-08-21T07:37:48;25.10;53.60
3630;DHT22;1831;53.626;10.012;2022-08-21T07:40:15;25.10;53.20
3630;DHT22;1831;53.626;10.012;2022-08-21T07:42:44;25.10;52.90
3630;DHT22;1831;53.626;10.012;2022-08-21T07:45:12;25.20;53.00
3630;DHT22;1831;53.626;10.012;2022-08-21T07:47:41;25.20;52.80
3630;DHT22;1831;53.626;10.012;2022-08-21T07:50:08;25.20;51.90
3630;DHT22;1831;53.626;10.012;2022-08-21T07:52:36;25.30;51.40
3630;DHT22;1831;53.626;10.012;2022-08-21T07:55:04;25.30;51.40
3630;DHT22;1831;53.626;10.012;2022-08-21T07:57:31;25.40;50.90
3630;DHT22;1831;53.626;10.012;2022-08-21T07:59:58;25.40;50.90
3630;DHT22;1831;53.626;10.012;2022-08-21T08:02:26;25.40;50.90
3630;DHT22;1831;53.626;10.012;2022-08-21T08:04:58;25.50;50.40
3630;DHT22;1831;53.626;10.012;2022-08-21T08:07:25;25.50;50.90
3630;DHT22;1831;53.626;10.012;2022-08-21T08:09:52;25.50;50.70
3630;DHT22;1831;53.626;10.012;2022-08-21T08:12:19;25.60;50.40
3630;DHT22;1831;53.626;10.012;2022-08-21T08:14:46;25.60;50.10
3630;DHT22;1831;53.626;10.012;2022-08-21T08:17:13;25.60;50.00
3630;DHT22;1831;53.626;10.012;2022-08-21T08:19:40;25.60;50.10
3630;DHT22;1831;53.626;10.012;2022-08-21T08:22:14;25.70;50.40
3630;DHT22;1831;53.626;10.012;2022-08-21T08:24:41;25.60;50.50
3630;DHT22;1831;53.626;10.012;2022-08-21T08:27:08;25.70;50.70
3630;DHT22;1831;53.626;10.012;2022-08-21T08:29:35;25.80;50.70
3630;DHT22;1831;53.626;10.012;2022-08-21T08:32:02;25.80;50.60
3630;DHT22;1831;53.626;10.012;2022-08-21T08:34:30;25.80;50.70
3630;DHT22;1831;53.626;10.012;2022-08-21T08:36:57;25.80;51.10
3630;DHT22;1831;53.626;10.012;2022-08-21T08:39:25;26.00;51.10
3630;DHT22;1831;53.626;10.012;2022-08-21T08:41:59;25.90;51.10
3630;DHT22;1831;53.626;10.012;2022-08-21T08:44:27;26.00;51.50
3630;DHT22;1831;53.626;10.012;2022-08-21T08:46:56;26.00;52.00
3630;DHT22;1831;53.626;10.012;2022-08-21T08:49:29;26.00;51.90
3630;DHT22;1831;53.626;10.012;2022-08-21T08:52:00;26.00;52.00
3630;DHT22;1831;53.626;10.012;2022-08-21T08:54:33;26.10;52.00
3630;DHT22;1831;53.626;10.012;2022-08-21T08:57:03;26.20;51.80
3630;DHT22;1831;53.626;10.012;2022-08-21T08:59:38;26.10;51.70
3630;DHT22;1831;53.626;10.012;2022-08-21T09:02:07;26.20;51.50
3630;DHT22;1831;53.626;10.012;2022-08-21T09:04:36;26.30;51.30
3630;DHT22;1831;53.626;10.012;2022-08-21T09:07:13;26.20;50.90
3630;DHT22;1831;53.626;10.012;2022-08-21T09:09:51;26.30;51.00
3630;DHT22;1831;53.626;10.012;2022-08-21T09:12:33;26.40;50.80
3630;DHT22;1831;53.626;10.012;2022-08-21T09:15:12;26.40;50.70
3630;DHT22;1831;53.626;10.012;2022-08-21T09:17:55;26.50;50.60
3630;DHT22;1831;53.626;10.012;2022-08-21T09:20:32;26.50;50.80
3630;DHT22;1831;53.626;10.012;2022-08-21T09:23:13;26.60;50.90
3630;DHT22;1831;53.626;10.012;2022-08-21T09:25:55;26.60;50.50
3630;DHT22;1831;53.626;10.012;2022-08-21T09:28:25;26.60;50.10
3630;DHT22;1831;53.626;10.012;2022-08-21T09:30:54;26.80;50.20
3630;DHT22;1831;53.626;10.012;2022-08-21T09:33:23;26.70;50.70
3630;DHT22;1831;53.626;10.012;2022-08-21T09:35:52;26.70;50.90
3630;DHT22;1831;53.626;10.012;2022-08-21T09:38:26;26.80;50.90
3630;DHT22;1831;53.626;10.012;2022-08-21T09:40:59;26.70;50.00
3630;DHT22;1831;53.626;10.012;2022-08-21T09:43:27;26.80;50.40
3630;DHT22;1831;53.626;10.012;2022-08-21T09:46:06;26.80;50.00
3630;DHT22;1831;53.626;10.012;2022-08-21T09:48:44;26.80;50.40
3630;DHT22;1831;53.626;10.012;2022-08-21T09:51:14;26.80;50.30
3630;DHT22;1831;53.626;10.012;2022-08-21T09:53:45;26.80;50.50
3630;DHT22;1831;53.626;10.012;2022-08-21T09:56:26;26.80;50.80
3630;DHT22;1831;53.626;10.012;2022-08-21T09:59:26;26.80;50.80
3630;DHT22;1831;53.626;10.012;2022-08-21T10:01:56;26.90;50.80
3630;DHT22;1831;53.626;10.012;2022-08-21T10:04:27;26.90;50.60
3630;DHT22;1831;53.626;10.012;2022-08-21T10:06:54;27.00;50.50
3630;DHT22;1831;53.626;10.012;2022-08-21T10:09:21;27.00;50.20
3630;DHT22;1831;53.626;10.012;2022-08-21T10:11:59;27.00;50.30
3630;DHT22;1831;53.626;10.012;2022-08-21T10:14:47;26.90;50.10
3630;DHT22;1831;53.626;10.012;2022-08-21T10:17:22;27.00;49.70
3630;DHT22;1831;53.626;10.012;2022-08-21T10:19:58;26.80;48.70
3630;DHT22;1831;53.626;10.012;2022-08-21T10:22:34;26.80;49.10
3630;DHT22;1831;53.626;10.012;2022-08-21T10:25:11;26.70;49.40
3630;DHT22;1831;53.626;10.012;2022-08-21T10:27:49;26.80;49.50
3630;DHT22;1831;53.626;10.012;2022-08-21T10:30:23;26.90;49.00
3630;DHT22;1831;53.626;10.012;2022-08-21T10:33:03;27.10;49.10
3630;DHT22;1831;53.626;10.012;2022-08-21T10:35:39;27.00;48.50
3630;DHT22;1831;53.626;10.012;2022-08-21T10:38:34;26.80;48.40
3630;DHT22;1831;53.626;10.012;2022-08-21T10:41:14;26.80;49.20
3630;DHT22;1831;53.626;10.012;2022-08-21T10:43:52;26.60;49.50
3630;DHT22;1831;53.626;10.012;2022-08-21T10:46:30;26.90;49.80
3630;DHT22;1831;53.626;10.012;2022-08-21T10:49:09;27.10;48.80
3630;DHT22;1831;53.626;10.012;2022-08-21T10:51:45;27.20;47.40
3630;DHT22;1831;53.626;10.012;2022-08-21T10:54:26;27.00;46.40
3630;DHT22;1831;53.626;10.012;2022-08-21T10:57:01;27.00;47.20
3630;DHT22;1831;53.626;10.012;2022-08-21T10:59:36;27.20;47.80
3630;DHT22;1831;53.626;10.012;2022-08-21T11:02:14;27.30;47.60
3630;DHT22;1831;53.626;10.012;2022-08-21T11:04:52;27.20;45.70
3630;DHT22;1831;53.626;10.012;2022-08-21T11:07:26;27.20;45.70
3630;DHT22;1831;53.626;10.012;2022-08-21T11:09:58;27.20;46.00
3630;DHT22;1831;53.626;10.012;2022-08-21T11:12:31;27.30;45.40
3630;DHT22;1831;53.626;10.012;2022-08-21T11:15:07;27.20;46.40
3630;DHT22;1831;53.626;10.012;2022-08-21T11:17:43;27.30;45.90
3630;DHT22;1831;53.626;10.012;2022-08-21T11:20:22;27.50;45.50
3630;DHT22;1831;53.626;10.012;2022-08-21T11:22:58;27.50;45.30
3630;DHT22;1831;53.626;10.012;2022-08-21T11:25:31;27.70;45.70
3630;DHT22;1831;53.626;10.012;2022-08-21T11:28:03;27.70;45.50
3630;DHT22;1831;53.626;10.012;2022-08-21T11:30:39;27.60;45.60
3630;DHT22;1831;53.626;10.012;2022-08-21T11:33:21;27.70;43.40
3630;DHT22;1831;53.626;10.012;2022-08-21T11:35:53;27.60;42.60
3630;DHT22;1831;53.626;10.012;2022-08-21T11:38:27;27.60;42.70
3630;DHT22;1831;53.626;10.012;2022-08-21T11:41:08;27.60;43.50
3630;DHT22;1831;53.626;10.012;2022-08-21T11:43:43;27.50;43.90
3630;DHT22;1831;53.626;10.012;2022-08-21T11:46:20;27.70;43.70
3630;DHT22;1831;53.626;10.012;2022-08-21T11:48:59;27.70;43.30
3630;DHT22;1831;53.626;10.012;2022-08-21T11:51:32;27.90;42.60
3630;DHT22;1831;53.626;10.012;2022-08-21T11:54:04;28.00;42.90
3630;DHT22;1831;53.626;10.012;2022-08-21T11:56:37;28.00;43.50
3630;DHT22;1831;53.626;10.012;2022-08-21T11:59:11;28.00;43.10
3630;DHT22;1831;53.626;10.012;2022-08-21T12:01:43;28.10;43.00
3630;DHT22;1831;53.626;10.012;2022-08-21T12:04:20;28.20;42.60
3630;DHT22;1831;53.626;10.012;2022-08-21T12:06:48;28.10;42.80
3630;DHT22;1831;53.626;10.012;2022-08-21T12:09:32;28.00;42.50
3630;DHT22;1831;53.626;10.012;2022-08-21T12:12:05;27.90;42.50
3630;DHT22;1831;53.626;10.012;2022-08-21T12:14:38;28.00;42.60
3630;DHT22;1831;53.626;10.012;2022-08-21T12:17:08;28.00;42.80
3630;DHT22;1831;53.626;10.012;2022-08-21T12:19:43;27.90;43.10
3630;DHT22;1831;53.626;10.012;2022-08-21T12:22:12;27.90;43.30
3630;DHT22;1831;53.626;10.012;2022-08-21T12:24:41;27.90;43.30
3630;DHT22;1831;53.626;10.012;2022-08-21T12:27:23;27.80;42.90
3630;DHT22;1831;53.626;10.012;2022-08-21T12:29:55;27.90;43.40
3630;DHT22;1831;53.626;10.012;2022-08-21T12:32:27;28.00;42.70
3630;DHT22;1831;53.626;10.012;2022-08-21T12:35:01;28.00;43.00
3630;DHT22;1831;53.626;10.012;2022-08-21T12:37:37;28.10;43.20
3630;DHT22;1831;53.626;10.012;2022-08-21T12:40:11;28.20;43.20
3630;DHT22;1831;53.626;10.012;2022-08-21T12:42:43;28.20;43.60
3630;DHT22;1831;53.626;10.012;2022-08-21T12:45:17;28.10;42.70
3630;DHT22;1831;53.626;10.012;2022-08-21T12:47:48;28.10;43.10
3630;DHT22;1831;53.626;10.012;2022-08-21T12:50:19;28.20;43.40
3630;DHT22;1831;53.626;10.012;2022-08-21T12:52:54;28.20;43.50
3630;DHT22;1831;53.626;10.012;2022-08-21T12:55:28;28.10;43.70
3630;DHT22;1831;53.626;10.012;2022-08-21T12:57:57;28.10;43.90
3630;DHT22;1831;53.626;10.012;2022-08-21T13:00:26;28.10;44.10
3630;DHT22;1831;53.626;10.012;2022-08-21T13:02:56;28.10;44.20
3630;DHT22;1831;53.626;10.012;2022-08-21T13:05:29;28.10;44.60
3630;DHT22;1831;53.626;10.012;2022-08-21T13:07:57;28.10;44.20
3630;DHT22;1831;53.626;10.012;2022-08-21T13:10:26;28.10;44.40
3630;DHT22;1831;53.626;10.012;2022-08-21T13:12:55;28.10;43.90
3630;DHT22;1831;53.626;10.012;2022-08-21T13:15:26;28.10;43.30
3630;DHT22;1831;53.626;10.012;2022-08-21T13:17:56;28.30;43.60
3630;DHT22;1831;53.626;10.012;2022-08-21T13:20:29;28.40;41.80
3630;DHT22;1831;53.626;10.012;2022-08-21T13:22:56;28.40;40.80
3630;DHT22;1831;53.626;10.012;2022-08-21T13:25:27;28.40;41.30
3630;DHT22;1831;53.626;10.012;2022-08-21T13:28:01;28.40;41.90
3630;DHT22;1831;53.626;10.012;2022-08-21T13:30:28;28.40;41.90
3630;DHT22;1831;53.626;10.012;2022-08-21T13:32:59;28.40;41.90
3630;DHT22;1831;53.626;10.012;2022-08-21T13:35:30;28.30;41.90
3630;DHT22;1831;53.626;10.012;2022-08-21T13:37:58;28.40;42.20
3630;DHT22;1831;53.626;10.012;2022-08-21T13:40:32;28.50;42.10
3630;DHT22;1831;53.626;10.012;2022-08-21T13:43:11;28.70;41.90
3630;DHT22;1831;53.626;10.012;2022-08-21T13:45:43;28.70;41.00
3630;DHT22;1831;53.626;10.012;2022-08-21T13:48:12;28.80;41.90
3630;DHT22;1831;53.626;10.012;2022-08-21T13:50:41;29.20;41.00
3630;DHT22;1831;53.626;10.012;2022-08-21T13:53:22;29.30;41.00
3630;DHT22;1831;53.626;10.012;2022-08-21T13:55:49;29.70;40.30
3630;DHT22;1831;53.626;10.012;2022-08-21T13:58:24;29.90;39.50
3630;DHT22;1831;53.626;10.012;2022-08-21T14:00:53;30.40;38.30
3630;DHT22;1831;53.626;10.012;2022-08-21T14:03:29;31.20;36.50
3630;DHT22;1831;53.626;10.012;2022-08-21T14:06:00;32.10;35.40
3630;DHT22;1831;53.626;10.012;2022-08-21T14:08:31;33.70;34.90
3630;DHT22;1831;53.626;10.012;2022-08-21T14:11:00;35.30;33.30
3630;DHT22;1831;53.626;10.012;2022-08-21T14:13:39;36.60;30.30
3630;DHT22;1831;53.626;10.012;2022-08-21T14:16:16;37.40;28.70
3630;DHT22;1831;53.626;10.012;2022-08-21T14:18:46;38.30;28.30
3630;DHT22;1831;53.626;10.012;2022-08-21T14:21:13;39.30;27.60
3630;DHT22;1831;53.626;10.012;2022-08-21T14:24:03;40.10;25.90
3630;DHT22;1831;53.626;10.012;2022-08-21T14:26:31;41.00;25.50
3630;DHT22;1831;53.626;10.012;2022-08-21T14:29:00;41.70;25.40
3630;DHT22;1831;53.626;10.012;2022-08-21T14:31:29;42.30;24.30
3630;DHT22;1831;53.626;10.012;2022-08-21T14:33:59;42.90;23.80
3630;DHT22;1831;53.626;10.012;2022-08-21T14:36:26;43.20;23.00
3630;DHT22;1831;53.626;10.012;2022-08-21T14:38:54;43.70;23.10
3630;DHT22;1831;53.626;10.012;2022-08-21T14:41:23;43.90;22.00
3630;DHT22;1831;53.626;10.012;2022-08-21T14:43:53;44.20;22.30
3630;DHT22;1831;53.626;10.012;2022-08-21T14:46:24;44.40;22.10
3630;DHT22;1831;53.626;10.012;2022-08-21T14:48:52;44.30;22.30
3630;DHT22;1831;53.626;10.012;2022-08-21T14:51:20;44.30;22.40
3630;DHT22;1831;53.626;10.012;2022-08-21T14:53:47;44.40;21.90
3630;DHT22;1831;53.626;10.012;2022-08-21T14:56:15;44.30;21.80
3630;DHT22;1831;53.626;10.012;2022-08-21T14:58:45;43.70;21.70
3630;DHT22;1831;53.626;10.012;2022-08-21T15:01:13;43.30;22.90
3630;DHT22;1831;53.626;10.012;2022-08-21T15:03:41;43.20;22.90
3630;DHT22;1831;53.626;10.012;2022-08-21T15:06:08;42.80;22.40
3630;DHT22;1831;53.626;10.012;2022-08-21T15:08:37;41.90;23.90
3630;DHT22;1831;53.626;10.012;2022-08-21T15:11:06;41.60;24.70
3630;DHT22;1831;53.626;10.012;2022-08-21T15:13:33;41.50;24.60
3630;DHT22;1831;53.626;10.012;2022-08-21T15:16:00;41.30;24.80
3630;DHT22;1831;53.626;10.012;2022-08-21T15:18:29;40.50;24.30
3630;DHT22;1831;53.626;10.012;2022-08-21T15:20:56;39.50;25.50
3630;DHT22;1831;53.626;10.012;2022-08-21T15:23:23;38.50;26.00
3630;DHT22;1831;53.626;10.012;2022-08-21T15:25:52;37.70;26.80
3630;DHT22;1831;53.626;10.012;2022-08-21T15:28:20;37.20;27.50
3630;DHT22;1831;53.626;10.012;2022-08-21T15:30:48;36.60;28.20
3630;DHT22;1831;53.626;10.012;2022-08-21T15:33:15;35.90;28.20
3630;DHT22;1831;53.626;10.012;2022-08-21T15:35:42;35.30;28.70
3630;DHT22;1831;53.626;10.012;2022-08-21T15:38:11;34.80;29.90
3630;DHT22;1831;53.626;10.012;2022-08-21T15:40:40;34.40;30.70
3630;DHT22;1831;53.626;10.012;2022-08-21T15:43:17;34.00;31.20
3630;DHT22;1831;53.626;10.012;2022-08-21T15:45:45;33.60;32.10
3630;DHT22;1831;53.626;10.012;2022-08-21T15:48:12;33.20;32.20
3630;DHT22;1831;53.626;10.012;2022-08-21T15:50:38;33.00;33.10
3630;DHT22;1831;53.626;10.012;2022-08-21T15:53:05;32.80;33.70
3630;DHT22;1831;53.626;10.012;2022-08-21T15:55:33;32.50;33.80
3630;DHT22;1831;53.626;10.012;2022-08-21T15:58:00;32.30;34.20
3630;DHT22;1831;53.626;10.012;2022-08-21T16:00:33;32.30;34.70
3630;DHT22;1831;53.626;10.012;2022-08-21T16:03:04;32.10;35.00
3630;DHT22;1831;53.626;10.012;2022-08-21T16:05:31;32.00;35.20
3630;DHT22;1831;53.626;10.012;2022-08-21T16:07:59;32.00;35.20
3630;DHT22;1831;53.626;10.012;2022-08-21T16:10:26;31.90;35.30